Time;durP1;ratioP1;P1;durP2;ratioP2;P2;SDS_P1;SDS_P2;PMS_P1;PMS_P2;Temp;Humidity;BMP_temperature;BMP_pressure;BME280_temperature;BME280_humidity;BME280_pressure;Samples;Min_cycle;Max_cycle;Signal;HPM_P1;HPM_P2
2023/05/15 00:00:22;;;;;;;1.83;1.05;;;9.60;99.90;;;;;;5039955;28;20043;-85
2023/05/15 00:02:48;;;;;;;1.85;1.10;;;9.50;99.90;;;;;;5023371;28;20028;-84
2023/05/15 00:05:13;;;;;;;2.30;1.58;;;9.50;99.90;;;;;;5056113;28;20511;-85
2023/05/15 00:07:40;;;;;;;2.65;1.50;;;9.50;99.90;;;;;;5056553;28;20036;-86
2023/05/15 00:10:06;;;;;;;1.90;1.10;;;9.50;99.90;;;;;;5056056;28;20024;-86
2023/05/15 00:12:32;;;;;;;2.47;1.40;;;9.50;99.90;;;;;;5039564;28;20036;-86
2023/05/15 00:14:58;;;;;;;1.65;0.93;;;9.50;99.90;;;;;;5039543;28;20423;-85
2023/05/15 00:17:25;;;;;;;5.03;2.80;;;9.40;99.90;;;;;;5023249;28;20515;-85
2023/05/15 00:19:53;;;;;;;6.25;3.50;;;9.40;99.90;;;;;;5040014;28;20029;-86
2023/05/15 00:22:19;;;;;;;7.15;2.80;;;9.40;99.90;;;;;;5056127;28;20062;-86
2023/05/15 00:24:45;;;;;;;5.25;2.75;;;9.40;99.90;;;;;;5039222;28;20052;-86
2023/05/15 00:27:10;;;;;;;2.75;1.60;;;9.30;99.90;;;;;;5039464;28;20039;-86
2023/05/15 00:29:36;;;;;;;3.15;1.30;;;9.40;99.90;;;;;;5022940;28;20025;-86
2023/05/15 00:32:01;;;;;;;2.47;1.33;;;9.30;99.90;;;;;;5022851;28;20035;-86
2023/05/15 00:34:27;;;;;;;2.00;0.98;;;9.30;99.90;;;;;;5073861;28;20103;-85
2023/05/15 00:36:53;;;;;;;1.98;1.08;;;9.30;99.90;;;;;;5022761;28;20033;-85
2023/05/15 00:39:18;;;;;;;2.17;0.70;;;9.30;99.90;;;;;;5056039;28;20489;-85
2023/05/15 00:41:46;;;;;;;1.75;0.73;;;9.30;99.90;;;;;;5039375;28;20416;-85
2023/05/15 00:44:14;;;;;;;1.33;0.80;;;9.30;99.90;;;;;;5039405;28;20036;-86
2023/05/15 00:46:40;;;;;;;1.35;0.70;;;9.30;99.90;;;;;;5039726;28;20024;-85
2023/05/15 00:49:12;;;;;;;2.85;0.70;;;9.40;99.90;;;;;;5055865;28;20052;-86
2023/05/15 00:51:39;;;;;;;0.88;0.60;;;9.40;99.90;;;;;;5040054;28;20160;-85
2023/05/15 00:54:06;;;;;;;1.83;0.68;;;9.30;99.90;;;;;;5056078;28;20040;-85
2023/05/15 00:56:33;;;;;;;0.77;0.47;;;9.30;99.90;;;;;;5055140;28;20029;-85
2023/05/15 00:58:59;;;;;;;1.08;0.60;;;9.20;99.90;;;;;;5038893;28;20033;-85
2023/05/15 01:01:25;;;;;;;1.48;0.45;;;9.10;99.90;;;;;;5039152;28;20086;-86
2023/05/15 01:03:51;;;;;;;1.20;0.52;;;9.10;99.90;;;;;;5039100;28;20111;-86
2023/05/15 01:06:16;;;;;;;1.45;0.50;;;9.10;99.90;;;;;;5056028;28;20040;-85
2023/05/15 01:08:46;;;;;;;1.17;0.50;;;9.10;99.90;;;;;;5039134;28;20025;-85
2023/05/15 01:11:14;;;;;;;1.90;0.60;;;9.10;99.90;;;;;;5039754;28;20029;-86
2023/05/15 01:13:40;;;;;;;1.83;0.50;;;9.10;99.90;;;;;;5055576;28;20408;-85
2023/05/15 01:16:07;;;;;;;1.42;0.47;;;9.10;99.90;;;;;;5039187;28;20043;-85
2023/05/15 01:18:34;;;;;;;1.23;0.57;;;9.00;99.90;;;;;;5055743;28;20040;-85
2023/05/15 01:21:18;;;;;;;2.35;0.55;;;9.00;99.90;;;;;;5039283;28;20539;-85
2023/05/15 01:24:01;;;;;;;1.45;0.45;;;8.90;99.90;;;;;;5073301;28;20035;-85
2023/05/15 01:26:58;;;;;;;1.05;0.50;;;8.90;99.90;;;;;;5055414;28;20020;-85
2023/05/15 01:29:29;;;;;;;2.05;0.50;;;8.90;99.90;;;;;;5073728;28;20537;-85
2023/05/15 01:32:30;;;;;;;0.70;0.47;;;8.90;99.90;;;;;;5055669;28;20029;-85
2023/05/15 01:35:11;;;;;;;0.80;0.40;;;8.90;99.90;;;;;;5060355;28;20071;-85
2023/05/15 01:37:42;;;;;;;2.07;0.50;;;8.90;99.90;;;;;;5059225;28;20075;-85
2023/05/15 01:40:10;;;;;;;0.80;0.30;;;8.90;99.90;;;;;;5058885;28;20024;-85
2023/05/15 01:42:41;;;;;;;1.30;0.50;;;8.80;99.90;;;;;;5059113;28;20025;-85
2023/05/15 01:45:10;;;;;;;0.95;0.50;;;8.80;99.90;;;;;;5058968;28;20028;-85
2023/05/15 01:47:47;;;;;;;0.57;0.40;;;8.70;99.90;;;;;;5042691;28;20029;-85
2023/05/15 01:50:15;;;;;;;0.70;0.40;;;8.70;99.90;;;;;;5039212;28;20052;-85
2023/05/15 01:52:45;;;;;;;1.02;0.50;;;8.70;99.90;;;;;;5056201;28;20025;-85
2023/05/15 01:55:14;;;;;;;0.60;0.40;;;8.60;99.90;;;;;;5055454;28;20037;-85
2023/05/15 01:57:42;;;;;;;0.82;0.40;;;8.60;99.90;;;;;;5056769;28;20090;-85
2023/05/15 02:00:09;;;;;;;0.88;0.50;;;8.60;99.90;;;;;;5026163;28;20036;-85
2023/05/15 02:02:36;;;;;;;1.30;0.65;;;8.60;99.90;;;;;;5042281;28;20032;-85
2023/05/15 02:05:03;;;;;;;1.00;0.55;;;8.60;99.90;;;;;;5025439;28;20029;-85
2023/05/15 02:07:30;;;;;;;0.90;0.52;;;8.60;99.90;;;;;;5041570;28;20075;-85
2023/05/15 02:09:56;;;;;;;0.88;0.47;;;8.70;99.90;;;;;;5042383;28;20036;-85
2023/05/15 02:12:22;;;;;;;0.52;0.35;;;8.70;99.90;;;;;;5076208;28;20096;-85
2023/05/15 02:14:50;;;;;;;1.27;0.43;;;8.70;99.90;;;;;;5042051;28;20444;-85
2023/05/15 02:17:16;;;;;;;2.22;0.55;;;8.70;99.90;;;;;;5058320;28;20056;-85
2023/05/15 02:19:42;;;;;;;4.18;1.13;;;8.70;99.90;;;;;;5057881;28;20150;-85
2023/05/15 02:22:08;;;;;;;1.63;0.65;;;8.70;99.90;;;;;;5024833;28;20059;-86
2023/05/15 02:24:34;;;;;;;0.98;0.60;;;8.70;99.90;;;;;;5041213;28;20024;-86
2023/05/15 02:27:18;;;;;;;2.33;0.60;;;8.60;99.90;;;;;;5041296;28;20392;-86
2023/05/15 02:29:46;;;;;;;0.65;0.47;;;8.60;99.90;;;;;;5057888;28;20476;-86
2023/05/15 02:32:29;;;;;;;1.42;0.45;;;8.60;99.90;;;;;;5058254;28;20032;-86
2023/05/15 02:35:18;;;;;;;1.02;0.40;;;8.60;99.90;;;;;;5075749;28;20020;-85
2023/05/15 02:37:48;;;;;;;0.43;0.32;;;8.60;99.90;;;;;;5057672;28;20025;-86
2023/05/15 02:40:15;;;;;;;1.23;0.50;;;8.60;99.90;;;;;;5057376;28;20108;-85
2023/05/15 02:42:44;;;;;;;1.15;0.50;;;8.60;99.90;;;;;;5041154;28;20033;-85
2023/05/15 02:45:11;;;;;;;0.60;0.40;;;8.60;99.90;;;;;;5057329;28;20503;-85
2023/05/15 02:47:37;;;;;;;1.00;0.52;;;8.60;99.90;;;;;;5039816;28;20508;-86
2023/05/15 02:50:03;;;;;;;1.30;0.50;;;8.60;99.90;;;;;;5024441;28;20381;-85
2023/05/15 02:52:30;;;;;;;1.67;0.50;;;8.70;99.90;;;;;;5041245;28;20029;-85
2023/05/15 02:54:55;;;;;;;1.45;0.50;;;8.60;99.90;;;;;;5040645;28;20029;-85
2023/05/15 02:57:21;;;;;;;1.20;0.50;;;8.60;99.90;;;;;;5041067;28;20036;-85
2023/05/15 02:59:47;;;;;;;1.25;0.50;;;8.60;99.90;;;;;;5024077;28;20032;-85
2023/05/15 03:02:12;;;;;;;3.40;0.85;;;8.60;99.90;;;;;;5040861;28;20060;-85
2023/05/15 03:04:38;;;;;;;1.10;0.50;;;8.50;99.90;;;;;;5024240;28;20199;-85
2023/05/15 03:07:04;;;;;;;1.40;0.55;;;8.50;99.90;;;;;;5024419;28;20021;-85
2023/05/15 03:09:30;;;;;;;0.73;0.40;;;8.50;99.90;;;;;;5024135;28;20120;-85
2023/05/15 03:11:55;;;;;;;0.57;0.40;;;8.50;99.90;;;;;;5057387;28;20032;-86
2023/05/15 03:14:21;;;;;;;1.45;0.65;;;8.50;99.90;;;;;;5040552;28;20032;-85
2023/05/15 03:16:46;;;;;;;0.80;0.40;;;8.50;99.90;;;;;;5040629;28;20082;-85
2023/05/15 03:19:12;;;;;;;1.17;0.60;;;8.50;99.90;;;;;;5024379;28;20028;-85
2023/05/15 03:21:38;;;;;;;0.50;0.40;;;8.40;99.90;;;;;;5057144;28;20484;-85
2023/05/15 03:24:04;;;;;;;0.77;0.50;;;8.30;99.90;;;;;;5057583;28;20029;-85
2023/05/15 03:26:29;;;;;;;0.68;0.40;;;8.30;99.90;;;;;;5057434;28;20020;-85
2023/05/15 03:28:56;;;;;;;2.60;0.43;;;8.30;99.90;;;;;;5040965;28;20040;-85
2023/05/15 03:31:22;;;;;;;1.10;0.45;;;8.30;99.90;;;;;;5057704;28;20218;-83
2023/05/15 03:33:50;;;;;;;1.20;0.38;;;8.20;99.90;;;;;;5057404;28;20020;-83
2023/05/15 03:36:15;;;;;;;0.80;0.50;;;8.20;99.90;;;;;;5059770;28;20035;-82
2023/05/15 03:38:43;;;;;;;0.40;0.30;;;8.20;99.90;;;;;;5044748;28;20024;-83
2023/05/15 03:41:09;;;;;;;1.50;0.52;;;8.20;99.90;;;;;;5027230;28;20033;-83
2023/05/15 03:43:35;;;;;;;1.00;0.40;;;8.20;99.90;;;;;;5029650;28;20060;-83
2023/05/15 03:46:00;;;;;;;0.85;0.35;;;8.20;99.90;;;;;;5061454;28;20345;-83
2023/05/15 03:48:26;;;;;;;0.45;0.30;;;8.20;99.90;;;;;;5078128;28;20062;-84
2023/05/15 03:50:52;;;;;;;0.38;0.22;;;8.10;99.90;;;;;;5060424;28;20401;-84
2023/05/15 03:53:17;;;;;;;0.40;0.30;;;8.20;99.90;;;;;;5089701;28;20032;-84
2023/05/15 03:55:43;;;;;;;0.95;0.50;;;8.20;99.90;;;;;;5066240;28;20444;-83
2023/05/15 03:58:09;;;;;;;1.17;0.40;;;8.20;99.90;;;;;;5043123;28;20029;-84
2023/05/15 04:00:35;;;;;;;0.93;0.30;;;8.20;99.90;;;;;;5065209;28;20021;-85
2023/05/15 04:03:01;;;;;;;1.48;0.52;;;8.10;99.90;;;;;;5055812;28;20031;-85
2023/05/15 04:05:26;;;;;;;0.65;0.30;;;8.10;99.90;;;;;;5061398;28;20067;-84
2023/05/15 04:07:52;;;;;;;3.53;0.30;;;8.10;99.90;;;;;;5058490;28;20056;-84
2023/05/15 04:10:18;;;;;;;2.97;0.32;;;8.10;99.90;;;;;;5030667;28;20033;-84
2023/05/15 04:12:44;;;;;;;0.80;0.45;;;8.10;99.90;;;;;;5059943;28;20052;-83
2023/05/15 04:15:17;;;;;;;0.65;0.30;;;8.00;99.90;;;;;;5043038;28;20086;-84
2023/05/15 04:17:45;;;;;;;0.47;0.25;;;8.00;99.90;;;;;;5059470;28;20503;-83
2023/05/15 04:20:13;;;;;;;0.73;0.30;;;8.00;99.90;;;;;;5076301;28;20033;-83
2023/05/15 04:22:39;;;;;;;2.03;0.38;;;8.00;99.90;;;;;;5047123;28;20044;-83
2023/05/15 04:25:06;;;;;;;0.70;0.30;;;8.00;99.90;;;;;;5043156;28;20116;-82
2023/05/15 04:27:32;;;;;;;1.63;0.90;;;7.90;99.90;;;;;;5059782;28;20048;-82
2023/05/15 04:30:00;;;;;;;2.00;0.80;;;8.00;99.90;;;;;;5060987;28;20032;-82
2023/05/15 04:32:26;;;;;;;1.70;1.00;;;7.90;99.90;;;;;;5043340;28;20488;-84
2023/05/15 04:34:52;;;;;;;1.67;0.90;;;7.90;99.90;;;;;;5041657;28;20040;-85
2023/05/15 04:37:18;;;;;;;2.42;1.40;;;7.90;99.90;;;;;;5037639;28;20529;-83
2023/05/15 04:39:43;;;;;;;2.10;0.82;;;8.00;99.90;;;;;;5059456;28;20033;-83
2023/05/15 04:42:09;;;;;;;1.60;0.90;;;8.00;99.90;;;;;;5058194;28;20056;-84
2023/05/15 04:44:35;;;;;;;1.08;0.60;;;8.00;99.90;;;;;;5043146;28;20025;-83
2023/05/15 04:47:00;;;;;;;2.05;0.60;;;8.10;99.90;;;;;;5022352;28;20463;-84
2023/05/15 04:49:26;;;;;;;1.52;0.90;;;8.10;99.90;;;;;;5039745;28;20033;-84
2023/05/15 04:51:52;;;;;;;7.88;4.00;;;8.10;99.90;;;;;;5038737;28;20025;-84
2023/05/15 04:54:17;;;;;;;5.68;2.25;;;8.10;99.90;;;;;;5023030;28;20068;-83
2023/05/15 04:56:44;;;;;;;2.22;1.20;;;8.00;99.90;;;;;;5054096;28;20090;-84
2023/05/15 04:59:10;;;;;;;3.78;2.28;;;8.10;99.90;;;;;;5079332;28;20378;-84
2023/05/15 05:01:36;;;;;;;5.63;3.55;;;8.10;99.90;;;;;;5076059;28;20025;-84
2023/05/15 05:04:02;;;;;;;6.07;4.00;;;8.10;99.90;;;;;;5057832;28;20025;-84
2023/05/15 05:06:27;;;;;;;5.53;3.80;;;8.10;99.90;;;;;;5042002;28;20458;-84
2023/05/15 05:08:53;;;;;;;3.47;2.78;;;8.10;99.90;;;;;;5058551;28;20090;-84
2023/05/15 05:11:18;;;;;;;4.43;2.60;;;8.20;99.90;;;;;;5046392;28;20040;-84
2023/05/15 05:13:44;;;;;;;2.55;1.70;;;8.20;99.90;;;;;;5042109;28;20052;-84
2023/05/15 05:16:10;;;;;;;1.90;1.23;;;8.20;99.90;;;;;;5042588;28;20036;-84
2023/05/15 05:18:36;;;;;;;1.63;0.80;;;8.20;99.90;;;;;;5026163;28;20484;-84
2023/05/15 05:21:03;;;;;;;1.40;0.60;;;8.30;99.90;;;;;;5024638;28;20036;-84
2023/05/15 05:23:29;;;;;;;1.17;0.52;;;8.30;99.90;;;;;;5059430;28;20021;-84
2023/05/15 05:25:55;;;;;;;1.17;0.40;;;8.30;99.90;;;;;;5041066;28;20017;-84
2023/05/15 05:28:21;;;;;;;0.88;0.32;;;8.40;99.90;;;;;;5059075;28;20031;-84
2023/05/15 05:30:47;;;;;;;1.38;0.40;;;8.40;99.90;;;;;;5043729;28;20036;-84
2023/05/15 05:33:13;;;;;;;1.08;0.38;;;8.40;99.90;;;;;;5053915;28;20089;-84
2023/05/15 05:35:39;;;;;;;0.93;0.43;;;8.40;99.90;;;;;;5054022;28;20103;-84
2023/05/15 05:38:04;;;;;;;1.08;0.60;;;8.40;99.90;;;;;;5045077;28;20557;-84
2023/05/15 05:40:30;;;;;;;1.42;0.65;;;8.50;99.90;;;;;;5061558;28;20032;-84
2023/05/15 05:43:00;;;;;;;0.80;0.40;;;8.50;99.90;;;;;;5078923;28;20499;-84
2023/05/15 05:45:26;;;;;;;1.25;0.50;;;8.50;99.90;;;;;;5061621;28;20074;-84
2023/05/15 05:47:54;;;;;;;1.02;0.60;;;8.60;99.90;;;;;;5079250;28;20024;-83
2023/05/15 05:50:20;;;;;;;2.97;0.80;;;8.60;99.90;;;;;;5079248;28;20020;-84
2023/05/15 05:52:45;;;;;;;3.25;1.50;;;8.60;99.90;;;;;;5044623;28;20055;-84
2023/05/15 05:55:11;;;;;;;2.88;1.70;;;8.60;99.90;;;;;;5064088;28;20115;-84
2023/05/15 05:57:37;;;;;;;1.90;0.80;;;8.70;99.90;;;;;;5060323;28;20476;-84
2023/05/15 06:00:07;;;;;;;2.30;0.90;;;8.70;99.90;;;;;;5060365;28;20116;-84
2023/05/15 06:02:33;;;;;;;0.98;0.57;;;8.70;99.90;;;;;;5060012;28;20082;-83
2023/05/15 06:04:59;;;;;;;1.42;0.70;;;8.70;99.90;;;;;;5057034;28;20033;-83
2023/05/15 06:07:24;;;;;;;1.02;0.60;;;8.70;99.90;;;;;;5034384;28;20210;-83
2023/05/15 06:09:50;;;;;;;1.60;0.50;;;8.70;99.90;;;;;;5044357;28;20473;-82
2023/05/15 06:12:16;;;;;;;0.80;0.40;;;8.70;99.90;;;;;;5040932;28;20024;-84
2023/05/15 06:14:41;;;;;;;1.58;0.40;;;8.70;99.90;;;;;;5040955;28;20059;-83
2023/05/15 06:17:07;;;;;;;1.15;0.60;;;8.70;99.90;;;;;;5024382;28;20035;-84
2023/05/15 06:19:33;;;;;;;1.23;0.65;;;8.70;99.90;;;;;;5040450;28;20033;-84
2023/05/15 06:21:58;;;;;;;1.90;0.90;;;8.70;99.90;;;;;;5022387;28;20036;-83
2023/05/15 06:24:24;;;;;;;2.80;1.20;;;8.80;99.90;;;;;;5040339;28;20048;-83
2023/05/15 06:26:49;;;;;;;1.88;1.13;;;8.80;99.90;;;;;;5055307;28;20052;-84
2023/05/15 06:29:15;;;;;;;1.73;0.80;;;8.80;99.90;;;;;;5043413;28;20025;-84
2023/05/15 06:31:41;;;;;;;1.70;0.60;;;8.80;99.90;;;;;;5060670;28;20074;-84
2023/05/15 06:34:06;;;;;;;1.05;0.52;;;8.80;99.90;;;;;;5042342;28;20429;-84
2023/05/15 06:36:32;;;;;;;1.88;0.40;;;8.80;99.90;;;;;;5039895;28;20040;-84
2023/05/15 06:38:58;;;;;;;0.95;0.50;;;8.70;99.90;;;;;;5039266;28;20033;-84
2023/05/15 06:41:24;;;;;;;1.25;0.50;;;8.70;99.90;;;;;;5040078;28;20025;-84
2023/05/15 06:43:49;;;;;;;1.00;0.50;;;8.70;99.90;;;;;;5023191;28;20040;-83
2023/05/15 06:46:17;;;;;;;1.05;0.50;;;8.70;99.90;;;;;;5023283;28;20091;-84
2023/05/15 06:48:43;;;;;;;1.02;0.55;;;8.70;99.90;;;;;;5022593;28;20123;-83
2023/05/15 06:51:09;;;;;;;1.48;0.40;;;8.70;99.90;;;;;;5023243;28;20425;-83
2023/05/15 06:53:35;;;;;;;0.60;0.38;;;8.70;99.90;;;;;;5023120;28;20047;-84
2023/05/15 06:56:01;;;;;;;0.68;0.40;;;8.70;99.90;;;;;;5065701;28;20031;-84
2023/05/15 06:58:26;;;;;;;1.25;0.63;;;8.80;99.90;;;;;;5059815;28;20032;-84
2023/05/15 07:00:52;;;;;;;1.67;1.08;;;8.70;99.90;;;;;;5042968;28;20112;-83
2023/05/15 07:03:18;;;;;;;1.95;1.08;;;8.70;99.90;;;;;;5058407;28;20016;-84
2023/05/15 07:05:44;;;;;;;2.40;0.95;;;8.70;99.90;;;;;;5026086;28;20029;-83
2023/05/15 07:08:09;;;;;;;1.38;0.80;;;8.70;99.90;;;;;;5040557;28;20024;-83
2023/05/15 07:10:35;;;;;;;1.38;0.60;;;8.60;99.90;;;;;;5058879;28;20052;-83
2023/05/15 07:13:01;;;;;;;1.25;0.68;;;8.60;99.90;;;;;;5059178;28;20036;-83
2023/05/15 07:15:26;;;;;;;1.20;0.70;;;8.60;99.90;;;;;;5058364;28;20066;-83
2023/05/15 07:17:52;;;;;;;0.98;0.52;;;8.60;99.90;;;;;;5051239;28;20249;-84
2023/05/15 07:20:18;;;;;;;1.27;0.60;;;8.50;99.90;;;;;;5077176;28;20035;-83
2023/05/15 07:22:43;;;;;;;1.20;0.68;;;8.50;99.90;;;;;;5037962;28;20516;-84
2023/05/15 07:25:09;;;;;;;1.02;0.50;;;8.50;99.90;;;;;;5041204;28;20021;-84
2023/05/15 07:27:35;;;;;;;2.05;0.60;;;8.60;99.90;;;;;;5042487;28;20059;-84
2023/05/15 07:30:05;;;;;;;0.98;0.45;;;8.60;99.90;;;;;;5038934;28;20024;-84
2023/05/15 07:32:31;;;;;;;6.75;2.35;;;8.60;99.90;;;;;;5043583;28;20396;-83
2023/05/15 07:34:56;;;;;;;24.70;7.32;;;8.70;99.90;;;;;;5066922;28;20021;-83
2023/05/15 07:37:23;;;;;;;26.10;8.15;;;8.70;99.90;;;;;;5037398;28;20040;-83
2023/05/15 07:39:49;;;;;;;8.60;2.88;;;8.70;99.90;;;;;;5021178;28;20029;-83
2023/05/15 07:42:14;;;;;;;17.52;4.22;;;8.70;99.90;;;;;;5055312;28;20029;-83
2023/05/15 07:44:40;;;;;;;11.25;3.70;;;8.70;99.90;;;;;;5037564;28;20025;-84
2023/05/15 07:47:06;;;;;;;5.20;2.13;;;8.80;99.90;;;;;;5037164;28;20021;-84
2023/05/15 07:49:31;;;;;;;3.00;1.15;;;8.80;99.90;;;;;;5054663;28;20025;-84
2023/05/15 07:51:57;;;;;;;4.90;1.77;;;8.80;99.90;;;;;;5020525;28;20029;-84
2023/05/15 07:54:23;;;;;;;8.02;2.92;;;8.80;99.90;;;;;;5036830;28;20412;-84
2023/05/15 07:56:48;;;;;;;7.65;2.42;;;8.80;99.90;;;;;;5084858;28;20103;-84
2023/05/15 07:59:14;;;;;;;12.20;5.28;;;8.80;99.90;;;;;;5094901;28;20032;-84
2023/05/15 08:01:40;;;;;;;12.38;5.35;;;8.90;99.90;;;;;;5059700;28;20028;-84
2023/05/15 08:04:07;;;;;;;6.50;2.60;;;8.90;99.90;;;;;;5059545;28;20055;-84
2023/05/15 08:06:35;;;;;;;3.13;1.02;;;8.90;99.90;;;;;;5094201;28;20058;-84
2023/05/15 08:09:02;;;;;;;2.10;0.60;;;8.90;99.90;;;;;;5060048;28;20028;-84
2023/05/15 08:11:27;;;;;;;1.00;0.50;;;8.90;99.90;;;;;;5076416;28;20455;-84
2023/05/15 08:13:53;;;;;;;1.08;0.65;;;8.90;99.90;;;;;;5063452;28;20052;-84
2023/05/15 08:16:18;;;;;;;2.00;0.80;;;9.00;99.90;;;;;;5032519;28;20029;-83
2023/05/15 08:18:44;;;;;;;3.63;1.50;;;9.00;99.90;;;;;;5056032;28;20040;-83
2023/05/15 08:21:10;;;;;;;3.35;1.67;;;9.00;99.90;;;;;;5073772;28;20024;-84
2023/05/15 08:23:36;;;;;;;3.03;1.52;;;9.00;99.90;;;;;;5034857;28;20062;-82
2023/05/15 08:26:01;;;;;;;2.10;1.33;;;9.00;99.90;;;;;;5067372;28;20025;-83
2023/05/15 08:28:27;;;;;;;2.10;1.13;;;9.10;99.90;;;;;;5035906;28;20083;-84
2023/05/15 08:30:53;;;;;;;1.77;0.85;;;9.10;99.90;;;;;;5036064;28;20395;-84
2023/05/15 08:33:18;;;;;;;1.80;0.82;;;9.20;99.90;;;;;;5036066;28;20025;-84
2023/05/15 08:35:44;;;;;;;2.55;1.20;;;9.30;99.90;;;;;;5035736;28;20481;-84
2023/05/15 08:38:10;;;;;;;1.23;0.77;;;9.30;99.90;;;;;;5052233;28;20024;-84
2023/05/15 08:40:36;;;;;;;4.82;2.38;;;9.30;99.90;;;;;;5055692;28;20503;-84
2023/05/15 08:43:15;;;;;;;10.80;5.40;;;9.30;99.90;;;;;;5073752;28;20021;-84
2023/05/15 08:45:41;;;;;;;5.55;2.30;;;9.30;99.90;;;;;;5057462;28;20029;-84
2023/05/15 08:48:12;;;;;;;2.75;1.60;;;9.30;99.90;;;;;;5042424;28;20031;-84
2023/05/15 08:50:39;;;;;;;2.63;1.00;;;9.30;99.90;;;;;;5077820;28;20021;-84
2023/05/15 08:53:05;;;;;;;1.52;0.60;;;9.40;99.90;;;;;;5043040;28;20539;-84
2023/05/15 08:55:31;;;;;;;1.30;0.50;;;9.40;99.90;;;;;;5038384;28;20097;-83
2023/05/15 08:57:58;;;;;;;2.58;0.60;;;9.50;99.90;;;;;;5039825;28;20029;-84
2023/05/15 09:00:25;;;;;;;1.45;0.50;;;9.50;99.90;;;;;;5023000;28;20029;-84
2023/05/15 09:02:52;;;;;;;0.90;0.43;;;9.60;99.90;;;;;;5039794;28;20116;-84
2023/05/15 09:05:18;;;;;;;1.55;0.50;;;9.60;99.90;;;;;;5057620;28;20029;-84
2023/05/15 09:07:46;;;;;;;1.42;0.60;;;9.70;99.90;;;;;;5039765;28;20021;-84
2023/05/15 09:10:12;;;;;;;2.70;1.38;;;9.70;99.90;;;;;;5040140;28;20032;-84
2023/05/15 09:12:43;;;;;;;1.33;0.70;;;9.80;99.90;;;;;;5040523;28;20029;-85
2023/05/15 09:15:16;;;;;;;1.37;0.67;;;9.80;99.90;;;;;;5023165;28;20033;-84
2023/05/15 09:17:43;;;;;;;1.98;0.40;;;9.90;99.90;;;;;;5022808;28;20033;-84
2023/05/15 09:20:29;;;;;;;0.88;0.40;;;9.80;99.90;;;;;;5022874;28;20025;-84
2023/05/15 09:22:55;;;;;;;0.80;0.30;;;9.90;99.90;;;;;;5039081;28;20052;-84
2023/05/15 09:25:38;;;;;;;1.05;0.50;;;10.00;99.90;;;;;;5045650;28;20088;-84
2023/05/15 09:28:05;;;;;;;0.68;0.35;;;10.00;99.90;;;;;;5097215;28;20095;-84
2023/05/15 09:30:33;;;;;;;0.95;0.50;;;10.10;99.90;;;;;;5078872;28;20027;-84
2023/05/15 09:33:00;;;;;;;0.85;0.47;;;10.20;99.90;;;;;;5078729;28;20077;-84
2023/05/15 09:35:33;;;;;;;1.48;0.43;;;10.30;99.90;;;;;;5078566;28;20032;-84
2023/05/15 09:38:00;;;;;;;1.50;0.50;;;10.40;99.90;;;;;;5096774;28;20028;-84
2023/05/15 09:40:30;;;;;;;1.65;0.40;;;10.40;99.90;;;;;;5061959;28;20028;-84
2023/05/15 09:42:57;;;;;;;1.10;0.47;;;10.50;99.90;;;;;;5078673;28;20028;-84
2023/05/15 09:45:25;;;;;;;1.30;0.40;;;10.50;99.90;;;;;;5078471;28;20028;-84
2023/05/15 09:47:51;;;;;;;2.60;0.55;;;10.50;99.90;;;;;;5079145;28;20020;-84
2023/05/15 09:50:36;;;;;;;1.25;0.50;;;10.50;99.90;;;;;;5078425;28;20036;-84
2023/05/15 09:53:02;;;;;;;1.25;0.40;;;10.50;99.90;;;;;;5078297;28;20123;-84
2023/05/15 09:55:31;;;;;;;0.93;0.45;;;10.50;99.90;;;;;;5057409;28;20131;-83
2023/05/15 09:58:10;;;;;;;0.70;0.40;;;10.60;99.90;;;;;;5041343;28;20029;-84
2023/05/15 10:00:36;;;;;;;0.98;0.57;;;10.60;99.90;;;;;;5058339;28;20484;-84
2023/05/15 10:03:07;;;;;;;1.77;0.80;;;10.70;99.90;;;;;;5058174;28;20377;-84
2023/05/15 10:05:33;;;;;;;1.48;0.55;;;10.80;99.90;;;;;;5058357;28;20035;-84
2023/05/15 10:08:01;;;;;;;1.00;0.50;;;10.80;99.90;;;;;;5058594;28;20032;-84
2023/05/15 10:10:27;;;;;;;0.82;0.43;;;10.80;99.90;;;;;;5075110;28;20025;-83
2023/05/15 10:12:57;;;;;;;0.98;0.50;;;10.80;99.90;;;;;;5024033;28;20041;-84
2023/05/15 10:15:22;;;;;;;0.70;0.40;;;10.80;99.90;;;;;;5038377;28;20392;-84
2023/05/15 10:17:50;;;;;;;0.52;0.30;;;10.80;99.90;;;;;;5055562;28;20496;-84
2023/05/15 10:20:18;;;;;;;0.60;0.40;;;10.70;99.90;;;;;;5060863;28;20033;-84
2023/05/15 10:22:52;;;;;;;0.93;0.40;;;10.80;99.90;;;;;;5055736;28;20029;-84
2023/05/15 10:25:32;;;;;;;0.73;0.50;;;10.90;99.90;;;;;;5040561;28;20153;-84
2023/05/15 10:27:59;;;;;;;0.43;0.30;;;11.00;99.90;;;;;;5075922;28;20021;-84
2023/05/15 10:30:26;;;;;;;0.82;0.50;;;11.10;99.90;;;;;;5041711;28;20170;-84
2023/05/15 10:32:54;;;;;;;1.50;0.60;;;11.30;99.90;;;;;;5057527;28;20031;-84
2023/05/15 10:35:21;;;;;;;1.40;0.65;;;11.30;99.90;;;;;;5036047;28;20037;-84
2023/05/15 10:37:48;;;;;;;2.88;0.82;;;11.30;99.90;;;;;;5038883;28;20056;-84
2023/05/15 10:40:15;;;;;;;1.10;0.50;;;11.40;99.90;;;;;;5038631;28;20507;-84
2023/05/15 10:42:46;;;;;;;6.28;2.92;;;11.50;99.90;;;;;;5072978;28;20029;-84
2023/05/15 10:45:12;;;;;;;1.50;0.73;;;11.60;99.90;;;;;;5072147;28;20484;-83
2023/05/15 10:47:39;;;;;;;0.98;0.52;;;11.60;99.90;;;;;;5065276;28;20028;-83
2023/05/15 10:50:06;;;;;;;1.13;0.65;;;11.70;99.90;;;;;;5057016;28;20082;-84
2023/05/15 10:52:32;;;;;;;2.03;0.90;;;11.70;99.90;;;;;;5053998;28;20111;-83
2023/05/15 10:54:59;;;;;;;1.98;1.23;;;11.70;99.90;;;;;;5057420;28;20540;-83
2023/05/15 10:57:27;;;;;;;2.03;1.27;;;11.70;99.90;;;;;;5040610;28;20052;-83
2023/05/15 10:59:53;;;;;;;1.80;1.40;;;11.80;99.90;;;;;;5040294;28;20040;-83
2023/05/15 11:02:20;;;;;;;2.10;1.10;;;11.80;99.90;;;;;;5039687;28;20025;-83
2023/05/15 11:04:46;;;;;;;1.15;0.75;;;11.90;99.90;;;;;;5039276;28;20025;-83
2023/05/15 11:07:17;;;;;;;1.70;1.00;;;12.00;99.90;;;;;;5039050;28;20480;-82
2023/05/15 11:09:43;;;;;;;1.70;1.10;;;12.00;99.90;;;;;;5055220;28;20108;-82
2023/05/15 11:12:12;;;;;;;2.28;1.23;;;12.00;99.90;;;;;;5056046;28;20029;-82
2023/05/15 11:14:41;;;;;;;6.57;4.88;;;12.10;99.90;;;;;;5038986;28;20029;-82
2023/05/15 11:17:09;;;;;;;2.53;1.10;;;12.20;99.90;;;;;;5039394;28;20029;-82
2023/05/15 11:19:48;;;;;;;2.00;1.10;;;12.40;99.90;;;;;;5055289;28;20049;-82
2023/05/15 11:22:18;;;;;;;2.58;1.10;;;12.50;99.90;;;;;;5039047;28;20029;-83
2023/05/15 11:24:48;;;;;;;1.45;0.70;;;12.50;99.90;;;;;;5057216;28;20085;-82
2023/05/15 11:27:20;;;;;;;1.05;0.60;;;12.50;99.90;;;;;;5039839;28;20017;-82
2023/05/15 11:30:10;;;;;;;1.30;0.50;;;12.50;99.90;;;;;;5055586;28;20040;-82
2023/05/15 11:32:50;;;;;;;1.25;0.70;;;12.50;99.90;;;;;;5039263;28;20021;-82
2023/05/15 11:35:33;;;;;;;0.93;0.52;;;12.70;99.90;;;;;;5039376;28;20035;-81
2023/05/15 11:38:23;;;;;;;1.25;0.68;;;12.80;99.90;;;;;;5036982;28;20040;-82
2023/05/15 11:40:51;;;;;;;2.15;0.98;;;12.90;99.90;;;;;;5077028;28;20024;-81
2023/05/15 11:43:17;;;;;;;1.60;0.70;;;13.00;99.90;;;;;;5059658;28;20028;-82
2023/05/15 11:45:53;;;;;;;1.27;0.82;;;13.00;99.90;;;;;;5060479;28;20032;-83
2023/05/15 11:48:19;;;;;;;4.70;0.77;;;13.10;99.90;;;;;;5078882;28;20099;-82
2023/05/15 11:50:45;;;;;;;0.85;0.55;;;13.20;99.90;;;;;;5037561;28;20051;-82
2023/05/15 11:53:11;;;;;;;0.70;0.50;;;13.20;99.90;;;;;;5058183;28;20040;-82
2023/05/15 11:55:39;;;;;;;1.95;0.60;;;13.30;99.90;;;;;;5057791;28;20058;-82
2023/05/15 11:58:10;;;;;;;0.98;0.60;;;13.30;99.90;;;;;;5041437;28;20105;-82
2023/05/15 12:00:36;;;;;;;1.10;0.63;;;13.30;99.90;;;;;;5075794;28;20029;-82
2023/05/15 12:03:04;;;;;;;0.82;0.60;;;13.30;99.90;;;;;;5038557;28;20039;-82
2023/05/15 12:05:30;;;;;;;0.73;0.30;;;13.30;99.90;;;;;;5055832;28;20392;-82
2023/05/15 12:07:56;;;;;;;1.10;0.60;;;13.30;99.90;;;;;;5036849;28;20025;-82
2023/05/15 12:10:22;;;;;;;1.20;0.63;;;13.20;99.90;;;;;;5054089;28;20044;-82
2023/05/15 12:12:49;;;;;;;1.80;0.75;;;13.20;99.90;;;;;;5052794;28;20059;-82
2023/05/15 12:15:16;;;;;;;0.95;0.60;;;13.30;99.90;;;;;;5056029;28;20060;-82
2023/05/15 12:17:44;;;;;;;4.28;2.60;;;13.30;99.90;;;;;;5036349;28;20580;-82
2023/05/15 12:20:15;;;;;;;3.05;1.67;;;13.30;99.90;;;;;;5072320;28;20025;-83
2023/05/15 12:22:41;;;;;;;1.15;0.60;;;13.30;99.90;;;;;;5046485;28;20110;-82
2023/05/15 12:25:10;;;;;;;1.58;0.85;;;13.40;99.90;;;;;;5036330;28;20025;-82
2023/05/15 12:27:36;;;;;;;1.30;0.63;;;13.50;99.90;;;;;;5054002;28;20086;-82
2023/05/15 12:30:04;;;;;;;0.95;0.50;;;13.60;99.90;;;;;;5036577;28;20078;-82
2023/05/15 12:32:34;;;;;;;1.38;0.50;;;13.70;99.90;;;;;;5036412;28;20040;-82
2023/05/15 12:35:00;;;;;;;0.55;0.40;;;13.60;99.90;;;;;;5069388;28;20454;-82
2023/05/15 12:37:27;;;;;;;1.25;0.47;;;13.50;99.90;;;;;;5052214;28;20043;-82
2023/05/15 12:39:59;;;;;;;1.50;0.70;;;13.50;99.90;;;;;;5076564;28;20502;-82
2023/05/15 12:42:26;;;;;;;0.70;0.40;;;13.60;99.90;;;;;;5074096;28;20495;-82
2023/05/15 12:44:53;;;;;;;1.50;1.05;;;13.70;99.90;;;;;;5043407;28;20031;-81
2023/05/15 12:47:24;;;;;;;3.40;1.52;;;13.70;99.90;;;;;;5073984;28;20108;-81
2023/05/15 12:49:54;;;;;;;2.95;1.52;;;13.80;99.90;;;;;;5061199;28;20418;-82
2023/05/15 12:52:20;;;;;;;1.60;0.90;;;13.80;99.90;;;;;;5074717;28;20467;-81
2023/05/15 12:54:45;;;;;;;2.85;1.33;;;13.80;99.90;;;;;;5040143;28;20135;-82